TimeCET,TemperatureF,Dew PointF,Humidity,Sea Level PressureIn,VisibilityMPH,Wind Direction,Wind SpeedMPH,Gust SpeedMPH,PrecipitationIn,Events,Conditions,WindDirDegrees,DateUTC
12:25 AM,44.6,41.0,87,29.95,6.2,South,17.3,-,N/A,,Unknown,170,2012-11-22 23:25:00
12:55 AM,44.6,41.0,87,29.95,6.2,South,17.3,-,N/A,,Unknown,170,2012-11-22 23:55:00
1:00 AM,44,40,82,29.94,22,South,17.9,,,,Partly Cloudy,170,2012-11-23 00:00:00
1:25 AM,44.6,41.0,87,29.92,6.2,South,18.4,-,N/A,,Unknown,170,2012-11-23 00:25:00
1:55 AM,44.6,39.2,81,29.92,6.2,South,19.6,-,N/A,,Unknown,170,2012-11-23 00:55:00
2:25 AM,44.6,39.2,81,29.92,6.2,South,18.4,-,N/A,,Unknown,170,2012-11-23 01:25:00
2:55 AM,44.6,41.0,87,29.89,6.2,South,17.3,-,N/A,,Unknown,170,2012-11-23 01:55:00
3:25 AM,44.6,41.0,87,29.89,6.2,South,17.3,-,N/A,,Unknown,170,2012-11-23 02:25:00
3:55 AM,44.6,41.0,87,29.89,6.2,South,16.1,-,N/A,,Unknown,170,2012-11-23 02:55:00
4:00 AM,45,41,80,29.88,28,South,17.9,,,,Overcast,170,2012-11-23 03:00:00
4:25 AM,44.6,41.0,87,29.86,6.2,SSE,16.1,-,N/A,,Unknown,160,2012-11-23 03:25:00
4:55 AM,44.6,41.0,87,29.86,6.2,South,16.1,-,N/A,,Unknown,170,2012-11-23 03:55:00
5:25 AM,46.4,41.0,81,29.86,6.2,South,16.1,-,N/A,,Unknown,170,2012-11-23 04:25:00
5:55 AM,46.4,41.0,81,29.86,6.2,South,18.4,-,N/A,,Unknown,170,2012-11-23 04:55:00
6:25 AM,46.4,41.0,81,29.83,6.2,South,16.1,-,N/A,,Unknown,170,2012-11-23 05:25:00
6:55 AM,46.4,41.0,81,29.83,6.2,South,17.3,-,N/A,,Unknown,170,2012-11-23 05:55:00
7:00 AM,46,41,75,29.84,28,South,17.9,,,,Partly Cloudy,170,2012-11-23 06:00:00
7:25 AM,46.4,41.0,81,29.83,6.2,South,16.1,-,N/A,,Overcast,170,2012-11-23 06:25:00
7:55 AM,46.4,42.8,87,29.83,6.2,South,13.8,-,N/A,,Light Drizzle,180,2012-11-23 06:55:00
8:25 AM,46.4,42.8,87,29.83,6.2,South,13.8,-,N/A,Rain,Light Rain,180,2012-11-23 07:25:00
8:55 AM,46.4,44.6,93,29.86,6.2,South,11.5,-,N/A,Rain,Light Rain,190,2012-11-23 07:55:00
9:25 AM,46.4,44.6,93,29.86,6.2,SSW,17.3,-,N/A,Rain,Light Rain,200,2012-11-23 08:25:00
9:55 AM,46.4,44.6,93,29.89,6.2,SSW,16.1,-,N/A,Rain,Light Rain,210,2012-11-23 08:55:00
10:00 AM,46,45,93,29.89,6,SSW,13.4,,,Rain,Rain,210,2012-11-23 09:00:00
10:25 AM,46.4,44.6,93,29.89,6.2,SSW,16.1,-,N/A,Rain,Light Rain,210,2012-11-23 09:25:00
10:55 AM,46.4,44.6,93,29.89,6.2,SSW,9.2,-,N/A,,Drizzle,210,2012-11-23 09:55:00
11:25 AM,46.4,44.6,93,29.92,6.2,SSW,8.1,-,N/A,,Light Drizzle,210,2012-11-23 10:25:00
11:55 AM,46.4,44.6,93,29.92,6.2,South,6.9,-,N/A,Rain,Light Rain,190,2012-11-23 10:55:00
12:25 PM,46.4,46.4,100,29.92,6.2,SSW,6.9,-,N/A,Rain,Drizzle,210,2012-11-23 11:25:00
12:55 PM,46.4,44.6,93,29.92,6.2,SSW,8.1,-,N/A,,Mostly Cloudy,210,2012-11-23 11:55:00
1:00 PM,47,45,88,29.93,22,SSW,6.7,,,Rain,Rain,210,2012-11-23 12:00:00
1:25 PM,46.4,44.6,93,29.92,6.2,SSW,6.9,-,N/A,,Overcast,210,2012-11-23 12:25:00
1:55 PM,46.4,44.6,93,29.95,6.2,SW,8.1,-,N/A,,Overcast,220,2012-11-23 12:55:00
2:25 PM,46.4,44.6,93,29.95,6.2,SW,9.2,-,N/A,,Overcast,220,2012-11-23 13:25:00
2:55 PM,46.4,44.6,93,29.95,6.2,SW,9.2,-,N/A,,Unknown,230,2012-11-23 13:55:00
3:25 PM,46.4,42.8,87,29.95,6.2,SW,9.2,-,N/A,,Unknown,220,2012-11-23 14:25:00
3:55 PM,46.4,44.6,93,29.95,6.2,SW,8.1,-,N/A,,Unknown,220,2012-11-23 14:55:00
4:00 PM,46,44,89,29.97,28,SW,8.9,,,,Overcast,220,2012-11-23 15:00:00
4:25 PM,44.6,42.8,93,29.98,6.2,SW,6.9,-,N/A,,Unknown,220,2012-11-23 15:25:00
4:55 PM,42.8,42.8,100,29.98,6.2,SSW,3.5,-,N/A,,Unknown,200,2012-11-23 15:55:00
5:25 PM,42.8,42.8,100,29.98,6.2,SSW,4.6,-,N/A,,Partly Cloudy,200,2012-11-23 16:25:00
5:55 PM,42.8,42.8,100,29.98,6.2,South,5.8,-,N/A,,Unknown,180,2012-11-23 16:55:00
6:25 PM,41.0,41.0,100,29.98,6.2,SSW,5.8,-,N/A,,Unknown,200,2012-11-23 17:25:00
6:55 PM,41.0,41.0,100,30.01,6.2,South,4.6,-,N/A,,Unknown,180,2012-11-23 17:55:00
7:00 PM,40,40,100,30.01,7,South,4.5,,,,Partly Cloudy,180,2012-11-23 18:00:00
7:25 PM,39.2,39.2,100,30.01,6.2,South,5.8,-,N/A,,Unknown,190,2012-11-23 18:25:00
7:55 PM,41.0,41.0,100,30.01,6.2,South,5.8,-,N/A,,Unknown,190,2012-11-23 18:55:00
8:25 PM,41.0,41.0,100,30.01,3.1,South,5.8,-,N/A,,Mist,190,2012-11-23 19:25:00
8:55 PM,41.0,39.2,93,30.01,-9999.0,South,4.6,-,N/A,,Mist,180,2012-11-23 19:55:00
9:25 PM,39.2,39.2,100,30.01,3.1,South,4.6,-,N/A,,Mist,170,2012-11-23 20:25:00
9:55 PM,37.4,37.4,100,30.01,0.6,South,2.3,-,N/A,,Mist,170,2012-11-23 20:55:00
10:00 PM,39,39,100,30.03,0,South,2.2,,,Fog,Fog,180,2012-11-23 21:00:00
10:25 PM,37.4,37.4,100,30.01,0.2,South,2.3,-,N/A,Fog,Fog,170,2012-11-23 21:25:00
10:55 PM,35.6,35.6,100,30.04,0.4,Variable,2.3,-,N/A,Fog,Fog,0,2012-11-23 21:55:00
11:25 PM,35.6,35.6,100,30.04,0.2,SSE,3.5,-,N/A,Fog,Fog,150,2012-11-23 22:25:00
11:55 PM,33.8,33.8,100,30.04,0.3,SSE,2.3,-,N/A,Fog,Fog,160,2012-11-23 22:55:00